Time;durP1;ratioP1;P1;durP2;ratioP2;P2;SDS_P1;SDS_P2;PMS_P1;PMS_P2;Temp;Humidity;BMP_temperature;BMP_pressure;BME280_temperature;BME280_humidity;BME280_pressure;Samples;Min_cycle;Max_cycle;Signal;HPM_P1;HPM_P2
2022/06/20 00:02:18;;;;;;;2.35;2.10;;;24.00;99.90;;;;;;4929597;29;20258;-86
2022/06/20 00:04:45;;;;;;;1.83;1.70;;;24.00;99.90;;;;;;4928843;29;20195;-86
2022/06/20 00:07:13;;;;;;;2.25;2.10;;;23.90;99.90;;;;;;4927152;29;20222;-85
2022/06/20 00:09:42;;;;;;;2.10;1.92;;;23.90;99.90;;;;;;4922342;29;20594;-84
2022/06/20 00:12:13;;;;;;;4.43;2.60;;;23.80;99.90;;;;;;4921573;29;20234;-85
2022/06/20 00:14:40;;;;;;;2.22;2.00;;;23.80;99.90;;;;;;4926460;29;20206;-84
2022/06/20 00:17:11;;;;;;;2.63;2.42;;;23.80;99.90;;;;;;4923162;29;20246;-84
2022/06/20 00:19:39;;;;;;;2.13;1.92;;;23.70;99.90;;;;;;4920754;29;20210;-84
2022/06/20 00:22:07;;;;;;;2.40;2.20;;;23.80;99.90;;;;;;4927590;29;20309;-84
2022/06/20 00:24:34;;;;;;;2.00;1.90;;;23.70;99.90;;;;;;4925453;29;20290;-84
2022/06/20 00:27:06;;;;;;;2.03;1.92;;;23.60;99.90;;;;;;4925897;29;20231;-84
2022/06/20 00:29:33;;;;;;;2.08;1.98;;;23.50;99.90;;;;;;4922631;29;20219;-84
2022/06/20 00:32:01;;;;;;;2.25;2.05;;;23.40;99.90;;;;;;4924242;29;20781;-83
2022/06/20 00:34:28;;;;;;;1.98;1.88;;;23.40;99.90;;;;;;4927788;29;20202;-83
2022/06/20 00:36:55;;;;;;;7.55;2.20;;;23.40;99.90;;;;;;4928889;29;20721;-83
2022/06/20 00:39:23;;;;;;;2.20;2.00;;;23.40;99.90;;;;;;4925290;29;20699;-83
2022/06/20 00:41:51;;;;;;;2.03;1.92;;;23.40;99.90;;;;;;4925739;29;20443;-83
2022/06/20 00:44:26;;;;;;;1.90;1.80;;;23.40;99.90;;;;;;4924711;29;20195;-83
2022/06/20 00:47:00;;;;;;;2.42;2.22;;;23.40;99.90;;;;;;4923184;29;20229;-84
2022/06/20 00:49:31;;;;;;;1.92;1.83;;;23.40;99.90;;;;;;4925948;29;20294;-83
2022/06/20 00:52:04;;;;;;;2.30;2.15;;;23.40;99.90;;;;;;4924752;29;20227;-83
2022/06/20 00:54:38;;;;;;;2.22;2.13;;;23.30;99.90;;;;;;4928468;29;20274;-83
2022/06/20 00:57:12;;;;;;;2.47;2.28;;;23.20;99.90;;;;;;4927931;29;20223;-83
2022/06/20 00:59:45;;;;;;;2.28;1.95;;;23.20;99.90;;;;;;4925656;29;20229;-83
2022/06/20 01:02:14;;;;;;;2.22;2.03;;;23.10;99.90;;;;;;4928570;29;20222;-83
2022/06/20 01:04:45;;;;;;;1.95;1.65;;;23.10;99.90;;;;;;4928528;29;20678;-82
2022/06/20 01:13:16;;;;;;;2.60;1.90;;;22.80;99.90;;;;;;4985036;28;20220;-73
2022/06/20 01:15:46;;;;;;;1.80;1.70;;;22.80;99.90;;;;;;4985940;28;20221;-73
2022/06/20 01:18:19;;;;;;;2.08;1.98;;;22.80;99.90;;;;;;4985218;28;20226;-73
2022/06/20 01:20:48;;;;;;;2.70;2.15;;;22.90;99.90;;;;;;4988782;28;20200;-73
2022/06/20 01:23:26;;;;;;;2.47;2.10;;;22.90;99.90;;;;;;4981797;28;20722;-73
2022/06/20 01:26:05;;;;;;;2.40;2.20;;;22.90;99.90;;;;;;4983387;28;20197;-73
2022/06/20 01:28:37;;;;;;;3.60;2.13;;;22.80;99.90;;;;;;4984700;28;20660;-73
2022/06/20 01:31:05;;;;;;;2.22;1.90;;;22.80;99.90;;;;;;4993235;28;20270;-72
2022/06/20 01:33:33;;;;;;;1.85;1.75;;;22.70;99.90;;;;;;4989662;28;20287;-73
2022/06/20 01:38:46;;;;;;;2.90;2.70;;;22.60;99.90;;;;;;4985639;28;20827;-73
2022/06/20 01:44:01;;;;;;;2.35;2.15;;;22.40;99.90;;;;;;4995770;28;20782;-73
2022/06/20 01:46:31;;;;;;;2.33;2.10;;;22.40;99.90;;;;;;4991561;28;20189;-73
2022/06/20 01:49:01;;;;;;;2.33;2.13;;;22.30;99.90;;;;;;4991167;28;20650;-73
2022/06/20 01:51:34;;;;;;;2.88;2.35;;;22.30;99.90;;;;;;4986400;28;20227;-73
2022/06/20 01:54:03;;;;;;;3.10;2.80;;;22.30;99.90;;;;;;4996866;28;20642;-73
2022/06/20 01:56:30;;;;;;;3.45;2.25;;;22.30;99.90;;;;;;4993527;28;20221;-73
2022/06/20 01:59:02;;;;;;;5.20;3.33;;;22.40;99.90;;;;;;4994555;28;20623;-73
2022/06/20 02:01:34;;;;;;;2.30;2.10;;;22.40;99.90;;;;;;4990583;28;20197;-73
2022/06/20 02:04:04;;;;;;;2.40;2.20;;;22.40;99.90;;;;;;4999639;28;20224;-73
2022/06/20 02:06:32;;;;;;;3.25;2.40;;;22.40;99.90;;;;;;4994323;28;20262;-73
2022/06/20 02:09:00;;;;;;;2.55;2.35;;;22.40;99.90;;;;;;4988287;28;20231;-73
2022/06/20 02:11:32;;;;;;;2.40;2.20;;;22.30;99.90;;;;;;4988650;28;20212;-73
2022/06/20 02:14:05;;;;;;;3.35;2.08;;;22.10;99.90;;;;;;4999858;28;20730;-73
2022/06/20 02:16:36;;;;;;;3.25;2.30;;;22.00;99.90;;;;;;4994174;28;20249;-73
2022/06/20 02:19:06;;;;;;;2.38;2.10;;;21.90;99.90;;;;;;4988269;28;20229;-73
2022/06/20 02:21:35;;;;;;;3.10;2.30;;;22.00;99.90;;;;;;4994461;28;20740;-73
2022/06/20 02:24:07;;;;;;;2.53;2.30;;;22.00;99.90;;;;;;4992205;28;20220;-73
2022/06/20 02:26:38;;;;;;;2.55;2.35;;;22.10;99.90;;;;;;4991427;28;20216;-73
2022/06/20 02:29:21;;;;;;;2.65;2.22;;;22.10;99.90;;;;;;4988794;28;20233;-73
2022/06/20 02:31:48;;;;;;;2.25;2.05;;;22.10;99.90;;;;;;4989587;28;20244;-73
2022/06/20 02:34:15;;;;;;;2.80;2.55;;;22.10;99.90;;;;;;4989574;28;20240;-73
2022/06/20 02:36:42;;;;;;;2.53;2.10;;;22.10;99.90;;;;;;4985014;28;20216;-73
2022/06/20 02:39:09;;;;;;;2.25;2.15;;;22.00;99.90;;;;;;4976928;28;20684;-73
2022/06/20 02:41:38;;;;;;;2.60;2.20;;;22.00;99.90;;;;;;4988984;28;20291;-74
2022/06/20 02:44:13;;;;;;;2.65;2.45;;;21.90;99.90;;;;;;4990041;28;20252;-73
2022/06/20 02:46:42;;;;;;;3.00;2.70;;;22.10;99.90;;;;;;4996395;28;20219;-74
2022/06/20 02:49:11;;;;;;;3.10;2.67;;;22.20;99.90;;;;;;4995242;28;20278;-73
2022/06/20 02:51:42;;;;;;;2.50;2.30;;;22.40;99.90;;;;;;4991334;28;20204;-74
2022/06/20 02:54:13;;;;;;;3.03;2.53;;;22.50;99.90;;;;;;4991357;28;20216;-74
2022/06/20 02:56:44;;;;;;;2.65;2.45;;;22.60;99.90;;;;;;4991064;28;20220;-74
2022/06/20 02:59:18;;;;;;;3.72;2.78;;;22.70;99.90;;;;;;4998594;28;20228;-74
2022/06/20 03:01:52;;;;;;;3.22;2.90;;;22.80;99.90;;;;;;4992723;28;20197;-74
2022/06/20 03:04:21;;;;;;;2.97;2.70;;;22.80;99.90;;;;;;4996579;28;20223;-74
2022/06/20 03:06:54;;;;;;;3.05;2.75;;;22.70;99.90;;;;;;4988085;28;20209;-74
2022/06/20 03:09:27;;;;;;;2.70;2.50;;;22.60;99.90;;;;;;4986728;28;20341;-73
2022/06/20 03:11:55;;;;;;;2.30;2.10;;;22.60;99.90;;;;;;4989153;28;20213;-74
2022/06/20 03:14:29;;;;;;;2.70;2.50;;;22.60;99.90;;;;;;4987532;28;20221;-74
2022/06/20 03:16:57;;;;;;;3.70;2.63;;;22.60;99.90;;;;;;4991077;28;20220;-74
2022/06/20 03:19:31;;;;;;;2.80;2.60;;;22.70;99.90;;;;;;4984838;28;20228;-73
2022/06/20 03:22:00;;;;;;;3.00;2.50;;;22.50;99.90;;;;;;4983774;28;20205;-74
2022/06/20 03:24:29;;;;;;;2.90;2.30;;;22.40;99.90;;;;;;4992048;28;20228;-73
2022/06/20 03:26:57;;;;;;;2.75;2.55;;;22.20;99.90;;;;;;4987831;28;20757;-74
2022/06/20 03:29:25;;;;;;;3.15;2.42;;;22.20;99.90;;;;;;4985823;28;20217;-73
2022/06/20 03:31:53;;;;;;;2.78;2.58;;;22.10;99.90;;;;;;4985192;28;20287;-74
2022/06/20 03:34:21;;;;;;;3.05;2.80;;;22.10;99.90;;;;;;4993850;28;20727;-74
2022/06/20 03:36:49;;;;;;;3.85;2.67;;;22.20;99.90;;;;;;4991546;28;20267;-74
2022/06/20 03:39:18;;;;;;;2.90;2.60;;;22.20;99.90;;;;;;4993668;28;20216;-74
2022/06/20 03:41:46;;;;;;;2.92;2.72;;;22.30;99.90;;;;;;4982308;28;20201;-73
2022/06/20 03:44:19;;;;;;;2.50;2.35;;;22.30;99.90;;;;;;4989127;28;20236;-74
2022/06/20 03:46:54;;;;;;;3.15;2.58;;;22.40;99.90;;;;;;4988871;28;20236;-75
2022/06/20 03:49:28;;;;;;;3.13;2.50;;;22.40;99.90;;;;;;4997722;28;20258;-74
2022/06/20 03:52:01;;;;;;;3.45;2.80;;;22.50;99.90;;;;;;4984592;28;20487;-74
2022/06/20 03:54:33;;;;;;;2.80;2.30;;;22.60;99.90;;;;;;4981030;28;20792;-73
2022/06/20 03:57:06;;;;;;;2.80;2.50;;;22.60;99.90;;;;;;4993039;28;20216;-74
2022/06/20 03:59:41;;;;;;;3.70;3.08;;;22.70;99.90;;;;;;4993686;28;20239;-74
2022/06/20 04:02:16;;;;;;;3.05;2.80;;;22.70;99.90;;;;;;4988657;28;20214;-74
2022/06/20 04:04:49;;;;;;;5.65;2.95;;;22.80;99.90;;;;;;4994477;28;20213;-75
2022/06/20 04:07:21;;;;;;;3.08;2.75;;;22.80;99.90;;;;;;4984100;28;20194;-74
2022/06/20 04:12:49;;;;;;;2.72;2.53;;;22.90;99.90;;;;;;4914154;28;20227;-74
2022/06/20 04:15:21;;;;;;;2.65;2.45;;;22.90;99.90;;;;;;4986395;28;20202;-72
2022/06/20 04:20:48;;;;;;;2.88;2.67;;;23.10;99.90;;;;;;4991063;28;20579;-73
2022/06/20 04:23:21;;;;;;;2.60;2.40;;;23.10;99.90;;;;;;4988055;28;20526;-73
2022/06/20 04:25:55;;;;;;;2.63;2.30;;;23.20;99.90;;;;;;4988054;28;20213;-73
2022/06/20 04:28:29;;;;;;;2.80;2.60;;;23.20;99.90;;;;;;4982269;28;20632;-73
2022/06/20 04:31:01;;;;;;;3.40;2.78;;;23.20;99.90;;;;;;4995198;28;20776;-74
2022/06/20 04:33:36;;;;;;;3.03;2.70;;;23.10;99.90;;;;;;4986254;28;20217;-73
2022/06/20 04:36:16;;;;;;;3.75;2.83;;;22.90;99.90;;;;;;4990429;28;20286;-73
2022/06/20 04:38:48;;;;;;;3.58;2.60;;;23.00;99.90;;;;;;4987200;28;20221;-73
2022/06/20 04:41:19;;;;;;;3.20;2.85;;;23.10;99.90;;;;;;4985864;28;20192;-73
2022/06/20 04:43:54;;;;;;;2.63;2.42;;;23.20;99.90;;;;;;4987282;28;20221;-73
2022/06/20 04:46:25;;;;;;;3.25;3.00;;;23.30;99.90;;;;;;4980743;28;20202;-74
2022/06/20 04:48:56;;;;;;;2.60;2.38;;;23.40;99.90;;;;;;4987761;28;20256;-74
2022/06/20 04:51:28;;;;;;;3.10;2.80;;;23.40;99.90;;;;;;4979750;28;20197;-73
2022/06/20 04:53:56;;;;;;;2.65;2.45;;;23.30;99.90;;;;;;4989590;28;20243;-74
2022/06/20 04:56:26;;;;;;;3.78;2.85;;;23.20;99.90;;;;;;4986005;28;20197;-74
2022/06/20 04:58:57;;;;;;;4.30;3.17;;;23.20;99.90;;;;;;4989817;28;20312;-73
2022/06/20 05:01:25;;;;;;;3.33;3.00;;;23.10;99.90;;;;;;4978628;28;20871;-73
2022/06/20 05:04:00;;;;;;;2.92;2.72;;;23.20;99.90;;;;;;4986344;28;20220;-73
2022/06/20 05:06:31;;;;;;;3.17;2.80;;;23.20;99.90;;;;;;4986110;28;20209;-73
2022/06/20 05:09:07;;;;;;;3.67;3.40;;;23.20;99.90;;;;;;4992768;28;20647;-74
2022/06/20 05:11:38;;;;;;;3.50;3.20;;;23.20;99.90;;;;;;4976517;28;20212;-74
2022/06/20 05:14:09;;;;;;;5.65;3.45;;;23.20;99.90;;;;;;4986064;28;20631;-73
2022/06/20 05:16:43;;;;;;;3.20;3.00;;;23.30;99.90;;;;;;4998626;28;20275;-75
2022/06/20 05:19:17;;;;;;;3.33;3.10;;;23.30;99.90;;;;;;4995706;28;20224;-73
2022/06/20 05:21:47;;;;;;;3.20;2.90;;;23.30;99.90;;;;;;4985727;28;20224;-73
2022/06/20 05:24:19;;;;;;;5.05;2.95;;;23.40;99.90;;;;;;4992624;28;20224;-73
2022/06/20 05:26:49;;;;;;;3.80;3.35;;;23.50;99.90;;;;;;4985749;28;20196;-72
2022/06/20 05:29:21;;;;;;;3.33;3.00;;;23.70;99.90;;;;;;4985295;28;20225;-73
2022/06/20 05:31:52;;;;;;;3.20;3.00;;;23.80;99.90;;;;;;4983165;28;20206;-73
2022/06/20 05:34:24;;;;;;;3.47;3.17;;;23.80;99.90;;;;;;4981400;28;20224;-74
2022/06/20 05:36:57;;;;;;;3.65;3.03;;;23.70;99.90;;;;;;4990333;28;20201;-73
2022/06/20 05:39:32;;;;;;;3.75;3.17;;;23.70;99.90;;;;;;5006475;23;20344;-82
2022/06/20 05:42:00;;;;;;;3.35;3.05;;;23.80;99.90;;;;;;4962881;28;20277;-83
2022/06/20 05:44:27;;;;;;;3.97;3.30;;;24.00;99.90;;;;;;4971597;28;20821;-83
2022/06/20 05:47:01;;;;;;;3.75;3.25;;;24.00;99.90;;;;;;4961067;28;20292;-83
2022/06/20 05:49:34;;;;;;;4.20;3.40;;;24.00;99.90;;;;;;4961108;28;20245;-83
2022/06/20 05:52:02;;;;;;;5.13;3.28;;;24.10;99.90;;;;;;4967707;28;20809;-83
2022/06/20 05:54:35;;;;;;;4.28;3.40;;;24.20;99.90;;;;;;4964097;28;20599;-82
2022/06/20 05:57:08;;;;;;;5.75;3.83;;;24.10;99.90;;;;;;4960162;28;20202;-84
2022/06/20 05:59:41;;;;;;;3.75;3.25;;;24.10;99.90;;;;;;4959664;28;20340;-84
2022/06/20 06:02:20;;;;;;;5.13;3.50;;;24.20;99.90;;;;;;4957445;28;20199;-84
2022/06/20 06:04:55;;;;;;;3.70;3.40;;;24.20;99.90;;;;;;4956959;28;20221;-83
2022/06/20 06:07:27;;;;;;;6.13;3.47;;;24.30;99.90;;;;;;4956580;28;22277;-86
2022/06/20 06:09:58;;;;;;;5.35;3.17;;;24.50;99.90;;;;;;4955519;28;20237;-83
2022/06/20 06:12:32;;;;;;;4.20;3.53;;;24.60;99.90;;;;;;4957425;28;20213;-81
2022/06/20 06:15:05;;;;;;;5.93;3.72;;;24.60;99.90;;;;;;4956388;28;20232;-81
2022/06/20 06:17:36;;;;;;;3.95;3.55;;;24.60;99.90;;;;;;4952860;28;20233;-82
2022/06/20 06:20:12;;;;;;;7.38;4.28;;;24.60;99.90;;;;;;4959050;28;20232;-82
2022/06/20 06:22:43;;;;;;;5.28;4.05;;;24.50;99.90;;;;;;4957033;28;20222;-82
2022/06/20 06:25:26;;;;;;;4.63;3.92;;;24.50;99.90;;;;;;4956098;28;20308;-81
2022/06/20 06:27:56;;;;;;;5.28;3.83;;;24.50;99.90;;;;;;4952771;28;20195;-81
2022/06/20 06:30:28;;;;;;;4.80;4.38;;;24.50;99.90;;;;;;4951980;28;20206;-82
2022/06/20 06:33:01;;;;;;;4.85;3.67;;;24.60;99.90;;;;;;4957012;28;20329;-81
2022/06/20 06:35:35;;;;;;;5.47;3.97;;;24.70;99.90;;;;;;4954243;28;20228;-82
2022/06/20 06:38:04;;;;;;;4.72;3.70;;;25.00;99.90;;;;;;4953893;28;20222;-84
2022/06/20 06:40:38;;;;;;;6.65;4.18;;;25.10;99.90;;;;;;4956919;28;20209;-84
2022/06/20 06:43:16;;;;;;;4.20;3.35;;;25.10;99.90;;;;;;4951137;28;20198;-84
2022/06/20 06:45:45;;;;;;;4.07;3.67;;;25.20;99.90;;;;;;4955425;28;20841;-82
2022/06/20 06:48:18;;;;;;;4.43;3.75;;;25.20;99.90;;;;;;4954253;28;20221;-80
2022/06/20 06:50:49;;;;;;;6.32;4.20;;;25.20;99.90;;;;;;4953714;28;20210;-80
2022/06/20 06:53:23;;;;;;;4.55;4.15;;;25.30;99.90;;;;;;4952920;28;20236;-79
2022/06/20 06:55:54;;;;;;;5.40;4.00;;;25.30;99.90;;;;;;4955842;28;20619;-79
2022/06/20 06:58:26;;;;;;;4.10;3.70;;;25.20;99.90;;;;;;4956232;28;20221;-78
2022/06/20 07:00:58;;;;;;;5.75;3.78;;;25.20;99.90;;;;;;4954157;28;20209;-78
2022/06/20 07:03:29;;;;;;;4.40;3.38;;;25.30;99.90;;;;;;4955954;28;20243;-78
2022/06/20 07:06:02;;;;;;;4.35;3.88;;;25.30;99.90;;;;;;4956896;28;20205;-77
2022/06/20 07:08:33;;;;;;;3.95;3.50;;;25.30;99.90;;;;;;4951536;28;20254;-77
2022/06/20 07:11:08;;;;;;;4.30;3.95;;;25.50;99.90;;;;;;4953681;28;20202;-78
2022/06/20 07:13:41;;;;;;;4.05;3.70;;;25.60;99.90;;;;;;4949106;28;20328;-78
2022/06/20 07:16:19;;;;;;;6.00;4.13;;;25.70;99.90;;;;;;4955435;28;20217;-84
2022/06/20 07:18:50;;;;;;;4.85;3.75;;;25.80;99.90;;;;;;4951446;28;20237;-84
2022/06/20 07:21:21;;;;;;;3.90;3.60;;;25.80;99.90;;;;;;4950945;28;20923;-85
2022/06/20 07:23:51;;;;;;;4.38;3.97;;;26.00;99.90;;;;;;4949143;28;20232;-86
2022/06/20 07:26:22;;;;;;;4.57;3.70;;;26.20;99.90;;;;;;4951946;28;20205;-86
2022/06/20 07:28:55;;;;;;;6.07;4.00;;;26.30;99.90;;;;;;4953156;28;20233;-86
2022/06/20 07:31:27;;;;;;;5.45;3.90;;;26.30;99.90;;;;;;4936052;28;20726;-86
2022/06/20 07:34:00;;;;;;;4.05;3.75;;;26.50;99.90;;;;;;4952868;28;20226;-85
2022/06/20 07:36:35;;;;;;;3.90;3.50;;;26.70;99.90;;;;;;4948528;28;20206;-86
2022/06/20 07:39:07;;;;;;;3.50;3.20;;;26.90;99.90;;;;;;4951109;28;20237;-86
2022/06/20 07:41:41;;;;;;;5.05;3.45;;;27.10;99.90;;;;;;4954806;28;20206;-86
2022/06/20 07:44:15;;;;;;;4.65;3.60;;;27.10;99.90;;;;;;4949598;28;21140;-85
2022/06/20 07:46:46;;;;;;;5.63;4.13;;;27.20;99.90;;;;;;4958554;28;20202;-87
2022/06/20 07:49:19;;;;;;;5.72;3.72;;;27.20;99.90;;;;;;4953088;28;20225;-85
2022/06/20 07:51:51;;;;;;;3.90;3.60;;;27.20;99.90;;;;;;4953709;28;20205;-86
2022/06/20 07:54:24;;;;;;;6.22;3.60;;;27.20;99.90;;;;;;4951348;28;20233;-85
2022/06/20 07:56:54;;;;;;;5.63;4.03;;;27.20;99.90;;;;;;4952884;28;20235;-86
2022/06/20 07:59:28;;;;;;;4.78;3.72;;;27.30;99.90;;;;;;4954373;28;20640;-86
2022/06/20 08:02:00;;;;;;;5.30;3.83;;;27.40;99.90;;;;;;4952191;28;20197;-85
2022/06/20 08:04:32;;;;;;;4.50;3.65;;;27.50;99.90;;;;;;4954871;28;20221;-85
2022/06/20 08:07:06;;;;;;;8.15;4.28;;;27.80;99.90;;;;;;4954928;28;20199;-85
2022/06/20 08:09:39;;;;;;;5.40;3.95;;;27.90;99.90;;;;;;4953362;28;20297;-86
2022/06/20 08:12:15;;;;;;;4.20;3.83;;;27.90;99.90;;;;;;4949425;28;20202;-86
2022/06/20 08:14:46;;;;;;;4.90;4.00;;;27.80;99.90;;;;;;4953420;28;20553;-86
2022/06/20 08:17:14;;;;;;;4.35;3.97;;;27.80;99.90;;;;;;4954075;28;20202;-86
2022/06/20 08:19:43;;;;;;;4.57;3.75;;;27.80;99.90;;;;;;4954915;28;20716;-85
2022/06/20 08:22:16;;;;;;;4.18;3.78;;;27.80;99.90;;;;;;4952472;28;20204;-85
2022/06/20 08:24:49;;;;;;;4.80;3.58;;;27.90;99.90;;;;;;4949677;28;20726;-85
2022/06/20 08:27:23;;;;;;;4.30;3.90;;;28.20;99.90;;;;;;4956705;28;20202;-87
2022/06/20 08:29:59;;;;;;;4.75;4.13;;;28.10;99.90;;;;;;4952965;28;20801;-88
2022/06/20 08:32:38;;;;;;;6.25;4.45;;;28.10;99.90;;;;;;4952128;28;20205;-85
2022/06/20 08:35:18;;;;;;;3.67;3.38;;;28.10;99.90;;;;;;4954444;28;20233;-87
2022/06/20 08:37:53;;;;;;;4.28;3.55;;;28.40;99.90;;;;;;4954663;28;20197;-87
2022/06/20 08:40:48;;;;;;;4.40;4.00;;;28.50;99.90;;;;;;4954747;28;20770;-87
2022/06/20 08:43:41;;;;;;;5.65;4.53;;;28.50;99.90;;;;;;4948783;28;20282;-86
2022/06/20 08:46:36;;;;;;;5.40;3.90;;;28.50;99.90;;;;;;4940119;28;20649;-86
2022/06/20 08:49:31;;;;;;;5.85;3.78;;;28.50;99.90;;;;;;4951448;28;20221;-85
2022/06/20 08:52:30;;;;;;;4.38;3.95;;;28.60;99.90;;;;;;4959067;28;20233;-87
2022/06/20 08:55:28;;;;;;;6.43;4.03;;;28.70;99.90;;;;;;4957717;28;20608;-86
2022/06/20 08:58:03;;;;;;;6.18;4.18;;;28.80;99.90;;;;;;4960837;28;20209;-85
2022/06/20 09:00:36;;;;;;;4.00;3.60;;;28.90;99.90;;;;;;4953172;28;20608;-86
2022/06/20 09:03:35;;;;;;;5.88;4.03;;;28.90;99.90;;;;;;4955601;28;20231;-87
2022/06/20 09:06:29;;;;;;;7.07;4.20;;;28.80;99.90;;;;;;4956534;28;21748;-86
2022/06/20 09:09:19;;;;;;;4.85;4.30;;;28.60;99.90;;;;;;4955978;28;20301;-84
2022/06/20 09:12:09;;;;;;;5.50;3.55;;;28.60;99.90;;;;;;4956549;28;20586;-85
2022/06/20 09:14:53;;;;;;;4.13;3.70;;;28.90;99.90;;;;;;4950907;28;20222;-85
2022/06/20 09:17:28;;;;;;;4.68;3.92;;;29.10;99.90;;;;;;4960317;28;20236;-84
2022/06/20 09:20:09;;;;;;;4.35;3.80;;;29.20;99.90;;;;;;4957290;28;20225;-86
2022/06/20 09:22:49;;;;;;;4.18;3.78;;;29.10;99.90;;;;;;4960054;28;20218;-86
2022/06/20 09:25:27;;;;;;;4.70;3.78;;;29.10;99.90;;;;;;4960163;28;20206;-87
2022/06/20 09:28:12;;;;;;;4.40;3.97;;;29.10;99.90;;;;;;4958918;28;20305;-84
2022/06/20 09:30:47;;;;;;;4.25;3.90;;;29.10;99.90;;;;;;4957910;28;20272;-86
2022/06/20 09:33:56;;;;;;;6.35;3.55;;;29.10;99.90;;;;;;4955584;28;20225;-86
2022/06/20 09:36:54;;;;;;;5.00;3.70;;;29.50;99.90;;;;;;4952735;28;20218;-85
2022/06/20 09:39:47;;;;;;;4.72;3.60;;;29.60;99.90;;;;;;4928319;28;20591;-85
2022/06/20 09:42:24;;;;;;;4.18;3.67;;;29.70;99.90;;;;;;4956897;28;20305;-86
2022/06/20 09:45:03;;;;;;;3.78;3.47;;;30.10;99.90;;;;;;4953798;28;20205;-86
2022/06/20 09:47:43;;;;;;;7.78;3.97;;;30.50;99.90;;;;;;4953982;28;20313;-86
2022/06/20 09:50:37;;;;;;;4.95;4.03;;;30.40;99.90;;;;;;4957923;28;20285;-84
2022/06/20 09:53:19;;;;;;;5.80;3.95;;;30.40;99.90;;;;;;4954875;28;20233;-86
2022/06/20 09:55:55;;;;;;;4.13;3.55;;;30.30;99.90;;;;;;4957859;28;20197;-84
2022/06/20 09:58:31;;;;;;;4.18;3.70;;;30.40;99.90;;;;;;4959982;28;20233;-84
2022/06/20 10:01:07;;;;;;;5.63;3.40;;;30.30;99.90;;;;;;4956234;28;20723;-83
2022/06/20 10:03:41;;;;;;;8.50;4.15;;;30.30;99.90;;;;;;4954085;28;20230;-84
2022/06/20 10:06:16;;;;;;;5.00;3.78;;;30.40;99.90;;;;;;4956863;28;20205;-84
2022/06/20 10:08:55;;;;;;;5.03;3.53;;;30.40;99.90;;;;;;4951805;28;20217;-83
2022/06/20 10:11:26;;;;;;;6.28;4.07;;;30.50;99.90;;;;;;4951749;28;20357;-82
2022/06/20 10:14:01;;;;;;;5.93;4.10;;;30.60;99.90;;;;;;4952433;28;20578;-83
2022/06/20 10:16:35;;;;;;;6.90;3.83;;;30.40;99.90;;;;;;4954194;28;20212;-84
2022/06/20 10:19:09;;;;;;;6.60;3.60;;;30.40;99.90;;;;;;4952106;28;20258;-84
2022/06/20 10:21:44;;;;;;;4.20;3.80;;;30.20;99.90;;;;;;4951975;28;20201;-82
2022/06/20 10:24:35;;;;;;;3.83;3.42;;;30.30;99.90;;;;;;4952460;28;20680;-84
2022/06/20 10:27:32;;;;;;;5.22;3.85;;;30.50;99.90;;;;;;4955734;28;20221;-84
2022/06/20 10:30:07;;;;;;;6.55;4.18;;;30.80;99.90;;;;;;4956199;28;20197;-84
2022/06/20 10:32:55;;;;;;;5.00;3.70;;;30.80;99.90;;;;;;4955968;28;20692;-86
2022/06/20 10:35:36;;;;;;;5.18;3.78;;;30.80;99.90;;;;;;4951389;28;20202;-84
2022/06/20 10:38:08;;;;;;;4.00;3.40;;;31.00;99.90;;;;;;4949617;28;20249;-83
2022/06/20 10:40:46;;;;;;;4.65;3.50;;;31.00;99.90;;;;;;4952469;28;20224;-82
2022/06/20 10:43:24;;;;;;;8.20;4.50;;;31.30;99.90;;;;;;4949557;28;20226;-83
2022/06/20 10:45:56;;;;;;;5.97;4.63;;;31.60;99.90;;;;;;4953414;28;20214;-82
2022/06/20 10:48:58;;;;;;;7.47;4.70;;;31.80;99.90;;;;;;4951201;28;20226;-82
2022/06/20 10:51:36;;;;;;;5.45;4.22;;;32.00;99.90;;;;;;4954501;28;20564;-82
2022/06/20 10:54:15;;;;;;;7.70;4.28;;;32.20;99.90;;;;;;4950249;28;20229;-82
2022/06/20 10:56:53;;;;;;;6.60;4.32;;;32.40;99.90;;;;;;4949564;28;20206;-82
2022/06/20 10:59:33;;;;;;;6.07;4.30;;;32.40;99.90;;;;;;4950924;28;20222;-84
2022/06/20 11:02:17;;;;;;;5.75;4.55;;;32.20;99.90;;;;;;4950625;28;20241;-81
2022/06/20 11:04:58;;;;;;;6.13;4.70;;;32.10;99.90;;;;;;4949931;28;20209;-84
2022/06/20 11:07:36;;;;;;;6.22;4.90;;;32.00;99.90;;;;;;4951939;28;20237;-85
2022/06/20 11:10:08;;;;;;;8.00;4.85;;;32.00;99.90;;;;;;4955656;28;20611;-85
2022/06/20 11:12:49;;;;;;;5.18;4.68;;;32.10;99.90;;;;;;4953991;28;20217;-84
2022/06/20 11:15:25;;;;;;;5.00;4.30;;;32.10;99.90;;;;;;4954000;28;20198;-84
2022/06/20 11:18:01;;;;;;;6.57;4.35;;;32.20;99.90;;;;;;4954315;28;20232;-84
2022/06/20 11:20:38;;;;;;;5.75;4.97;;;32.10;99.90;;;;;;4951318;28;20225;-83
2022/06/20 11:23:14;;;;;;;5.43;4.65;;;32.20;99.90;;;;;;4956998;28;20234;-79
2022/06/20 11:25:54;;;;;;;5.55;4.50;;;32.20;99.90;;;;;;4954483;28;20235;-83
2022/06/20 11:28:41;;;;;;;9.52;5.03;;;32.20;99.90;;;;;;4950589;28;20228;-84
2022/06/20 11:31:16;;;;;;;5.00;4.50;;;32.20;99.90;;;;;;4952117;28;20260;-83
2022/06/20 11:34:02;;;;;;;8.43;5.18;;;32.20;99.90;;;;;;4955625;28;20228;-84
2022/06/20 11:36:58;;;;;;;7.40;5.32;;;32.20;99.90;;;;;;4950209;28;20206;-82
2022/06/20 11:39:41;;;;;;;8.18;4.50;;;32.20;99.90;;;;;;4951013;28;20228;-82
2022/06/20 11:42:49;;;;;;;5.60;4.60;;;32.30;99.90;;;;;;4953999;28;20222;-82
2022/06/20 11:45:36;;;;;;;8.35;5.10;;;32.40;99.90;;;;;;4949081;28;20223;-78
2022/06/20 11:48:19;;;;;;;5.88;4.70;;;32.40;99.90;;;;;;4950617;28;20701;-79
2022/06/20 11:50:50;;;;;;;8.38;5.47;;;32.40;99.90;;;;;;4956324;28;20216;-81
2022/06/20 11:53:38;;;;;;;10.23;5.22;;;32.40;99.90;;;;;;4956094;28;20217;-80
2022/06/20 11:56:17;;;;;;;7.15;4.80;;;32.50;99.90;;;;;;4951595;28;20209;-83
2022/06/20 11:59:05;;;;;;;8.52;5.22;;;32.60;99.90;;;;;;4948975;28;20240;-83
2022/06/20 12:01:38;;;;;;;5.72;5.13;;;32.60;99.90;;;;;;4953733;28;20857;-82
2022/06/20 12:04:12;;;;;;;9.70;4.80;;;32.60;99.90;;;;;;4949156;28;20516;-80
2022/06/20 12:06:46;;;;;;;7.47;5.15;;;32.80;99.90;;;;;;4936432;28;20198;-81
2022/06/20 12:09:28;;;;;;;10.45;5.05;;;32.70;99.90;;;;;;4937641;28;20221;-81
2022/06/20 12:12:15;;;;;;;7.28;4.97;;;32.60;99.90;;;;;;4952708;28;20245;-81
2022/06/20 12:14:50;;;;;;;10.35;5.85;;;32.60;99.90;;;;;;4954710;28;20222;-81
2022/06/20 12:17:28;;;;;;;8.45;5.07;;;32.30;99.90;;;;;;4955381;28;20197;-81
2022/06/20 12:23:24;;;;;;;6.50;5.45;;;32.50;99.90;;;;;;4877644;29;20978;-84
2022/06/20 12:25:58;;;;;;;7.55;5.38;;;32.50;99.90;;;;;;4879792;29;20234;-84
2022/06/20 12:28:28;;;;;;;6.15;4.55;;;32.50;99.90;;;;;;4932129;28;20198;-84
2022/06/20 12:31:01;;;;;;;7.57;5.55;;;32.60;99.90;;;;;;4954084;28;20225;-82
2022/06/20 12:33:30;;;;;;;5.18;4.78;;;32.80;99.90;;;;;;4952408;28;20217;-82
2022/06/20 12:36:03;;;;;;;7.80;5.20;;;33.00;99.90;;;;;;4950888;28;20232;-82
2022/06/20 12:38:39;;;;;;;8.10;5.28;;;33.20;99.90;;;;;;4935129;28;20262;-82
2022/06/20 12:41:12;;;;;;;7.90;5.10;;;33.10;99.90;;;;;;4951689;28;20243;-83
2022/06/20 12:43:49;;;;;;;6.82;5.13;;;32.90;99.90;;;;;;4950855;28;20212;-82
2022/06/20 12:46:42;;;;;;;5.40;4.47;;;32.80;99.90;;;;;;4949951;28;20236;-81
2022/06/20 12:49:22;;;;;;;8.68;4.80;;;33.00;99.90;;;;;;4951673;28;20206;-81
2022/06/20 12:51:56;;;;;;;7.47;5.32;;;33.00;99.90;;;;;;4954531;28;20774;-81
2022/06/20 12:54:48;;;;;;;5.75;4.70;;;32.80;99.90;;;;;;4954069;28;20573;-81
2022/06/20 12:57:38;;;;;;;6.50;4.90;;;32.80;99.90;;;;;;4937982;28;20230;-82
2022/06/20 13:00:34;;;;;;;4.72;4.32;;;33.00;99.90;;;;;;4958684;28;20946;-81
2022/06/20 13:03:46;;;;;;;8.90;4.82;;;33.30;99.90;;;;;;4953328;28;20209;-81
2022/06/20 13:06:29;;;;;;;7.00;4.82;;;33.30;99.90;;;;;;4948784;28;20601;-82
2022/06/20 13:09:18;;;;;;;6.78;4.57;;;33.30;99.90;;;;;;4954239;28;20205;-81
2022/06/20 13:11:59;;;;;;;5.20;4.68;;;33.10;99.90;;;;;;4950475;28;20709;-82
2022/06/20 13:14:55;;;;;;;7.10;5.45;;;33.10;99.90;;;;;;4950549;28;20197;-82
2022/06/20 13:17:32;;;;;;;6.10;4.97;;;33.00;99.90;;;;;;4942619;28;20234;-81
2022/06/20 13:20:34;;;;;;;5.53;4.43;;;33.00;99.90;;;;;;4951661;28;20229;-79
2022/06/20 13:23:27;;;;;;;9.23;5.60;;;33.10;99.90;;;;;;4940504;28;20209;-79
2022/06/20 13:25:59;;;;;;;7.13;4.57;;;33.20;99.90;;;;;;4949437;28;20332;-79
2022/06/20 13:28:32;;;;;;;7.43;4.72;;;33.20;99.90;;;;;;4951313;28;20656;-79
2022/06/20 13:31:13;;;;;;;10.07;5.13;;;33.30;99.90;;;;;;4953729;28;20236;-79
2022/06/20 13:33:47;;;;;;;5.75;4.45;;;33.30;99.90;;;;;;4949175;28;20226;-80
2022/06/20 13:36:23;;;;;;;6.57;4.53;;;33.50;99.90;;;;;;4951282;28;20225;-79
2022/06/20 13:38:58;;;;;;;9.45;5.28;;;33.40;99.90;;;;;;4956797;28;20287;-79
2022/06/20 13:41:33;;;;;;;10.32;5.10;;;33.20;99.90;;;;;;4955400;28;20224;-80
2022/06/20 13:44:07;;;;;;;7.45;4.55;;;33.00;99.90;;;;;;4953826;28;20302;-82
2022/06/20 13:46:45;;;;;;;8.00;4.90;;;32.80;99.90;;;;;;4961176;28;20236;-81
2022/06/20 13:49:17;;;;;;;10.15;4.80;;;32.80;99.90;;;;;;4955188;28;20209;-82